createdAt,value
2019-04-26T00:03:53.089Z,77.80
2019-04-26T00:09:57.436Z,77.90
2019-04-26T00:16:11.585Z,77.90
2019-04-26T00:22:15.288Z,78.10
2019-04-26T00:28:17.534Z,78.40
2019-04-26T00:34:19.731Z,78.70
2019-04-26T00:40:22.428Z,78.60
2019-04-26T00:46:27.279Z,78.50
2019-04-26T00:52:30.247Z,78.90
2019-04-26T00:58:33.614Z,79.20
2019-04-26T01:04:36.027Z,79.30
2019-04-26T01:10:38.338Z,79.00
2019-04-26T01:16:40.666Z,78.60
2019-04-26T01:22:47.774Z,77.80
2019-04-26T01:28:57.050Z,77.40
2019-04-26T01:34:59.164Z,77.60
2019-04-26T01:41:04.106Z,77.80
2019-04-26T01:47:06.315Z,76.40
2019-04-26T01:53:08.778Z,75.30
2019-04-26T01:59:13.543Z,75.60
2019-04-26T02:05:20.307Z,76.40
2019-04-26T02:11:24.089Z,76.90
2019-04-26T02:17:27.300Z,77.30
2019-04-26T02:23:32.069Z,77.40
2019-04-26T02:29:35.336Z,78.00
2019-04-26T02:35:37.513Z,78.50
2019-04-26T02:41:39.742Z,78.60
2019-04-26T02:47:56.241Z,78.60
2019-04-26T02:54:11.764Z,78.40
2019-04-26T03:00:17.028Z,78.50
2019-04-26T03:06:19.172Z,78.00
2019-04-26T03:12:26.300Z,78.20
2019-04-26T03:18:38.839Z,77.70
2019-04-26T03:25:00.777Z,76.90
2019-04-26T03:31:42.819Z,76.90
2019-04-26T03:37:50.922Z,76.70
2019-04-26T03:44:02.655Z,76.90
2019-04-26T03:50:14.163Z,76.90
2019-04-26T03:56:51.817Z,76.80
2019-04-26T04:03:08.303Z,76.50
2019-04-26T04:09:11.215Z,76.00
2019-04-26T04:15:19.979Z,75.60
2019-04-26T04:21:37.484Z,75.20
2019-04-26T04:27:49.861Z,75.40
2019-04-26T04:34:05.391Z,75.20
2019-04-26T04:40:36.560Z,74.50
2019-04-26T04:47:34.103Z,74.30
2019-04-26T04:54:23.955Z,73.40
2019-04-26T05:00:54.842Z,72.80
2019-04-26T05:07:45.959Z,71.80
2019-04-26T05:14:12.064Z,71.50
2019-04-26T05:20:31.136Z,72.30
2019-04-26T05:27:02.409Z,70.40
2019-04-26T05:33:36.595Z,70.40
2019-04-26T05:39:51.591Z,70.40
2019-04-26T05:46:29.037Z,69.60
2019-04-26T05:53:44.856Z,68.50
2019-04-26T06:00:02.485Z,67.40
2019-04-26T06:06:34.516Z,65.80
2019-04-26T06:13:20.495Z,63.60
2019-04-26T06:19:48.694Z,64.00
2019-04-26T06:26:26.520Z,60.40
2019-04-26T06:32:38.733Z,59.20
2019-04-26T06:39:20.075Z,59.00
2019-04-26T06:46:15.927Z,57.30
2019-04-26T06:52:21.823Z,55.40
2019-04-26T06:58:57.969Z,52.70
2019-04-26T07:05:15.077Z,53.90
2019-04-26T07:11:50.093Z,55.00
2019-04-26T07:18:28.122Z,54.10
2019-04-26T07:25:09.026Z,54.60
2019-04-26T07:31:52.602Z,53.90
2019-04-26T07:38:53.647Z,53.00
2019-04-26T07:45:10.954Z,53.40
2019-04-26T07:52:09.100Z,54.00
2019-04-26T07:58:47.063Z,55.70
2019-04-26T08:05:00.612Z,56.30
2019-04-26T08:11:15.328Z,57.00
2019-04-26T08:17:24.553Z,58.20
2019-04-26T08:23:42.174Z,59.80
2019-04-26T08:29:41.093Z,57.40
2019-04-26T08:35:48.976Z,58.80
2019-04-26T08:41:53.570Z,59.30
2019-04-26T08:47:58.618Z,59.40
2019-04-26T08:54:04.562Z,58.60
2019-04-26T09:00:12.482Z,59.60
2019-04-26T09:06:30.696Z,56.50
2019-04-26T09:12:35.647Z,57.30
2019-04-26T09:18:43.665Z,58.20
2019-04-26T09:24:50.055Z,55.80
2019-04-26T09:30:54.295Z,53.80
2019-04-26T09:36:57.722Z,55.50
2019-04-26T09:43:10.422Z,54.80
2019-04-26T09:49:25.960Z,53.40
2019-04-26T09:55:35.121Z,53.10
2019-04-26T10:01:33.211Z,49.60
2019-04-26T10:07:37.496Z,46.20
2019-04-26T10:13:41.280Z,47.50
2019-04-26T10:19:48.290Z,46.30
2019-04-26T10:25:52.020Z,46.90
2019-04-26T10:31:54.553Z,44.50
2019-04-26T10:37:56.764Z,42.70
2019-04-26T10:43:58.962Z,47.20
2019-04-26T10:50:01.244Z,47.70
2019-04-26T10:56:24.234Z,46.80
2019-04-26T11:02:26.414Z,45.90
2019-04-26T11:08:29.020Z,46.50
2019-04-26T11:14:31.237Z,47.50
2019-04-26T11:20:33.587Z,48.00
2019-04-26T11:26:36.252Z,48.80
2019-04-26T11:32:38.703Z,49.80
2019-04-26T11:38:43.053Z,50.60
2019-04-26T11:44:45.277Z,51.20
2019-04-26T11:50:48.179Z,51.20
2019-04-26T11:56:52.663Z,51.70
2019-04-26T12:02:54.872Z,52.50
2019-04-26T12:08:58.947Z,53.70
2019-04-26T12:15:03.761Z,54.30
2019-04-26T12:21:05.208Z,54.70
2019-04-26T12:27:10.121Z,55.10
2019-04-26T12:33:11.783Z,55.60
2019-04-26T12:39:17.688Z,56.50
2019-04-26T12:45:23.916Z,56.70
2019-04-26T12:51:26.318Z,57.20
2019-04-26T12:57:30.519Z,57.50
2019-04-26T13:03:33.451Z,57.50
2019-04-26T13:09:37.559Z,57.20
2019-04-26T13:16:00.326Z,56.70
2019-04-26T13:22:02.572Z,56.80
2019-04-26T13:28:04.758Z,56.10
2019-04-26T13:34:06.993Z,55.60
2019-04-26T13:40:12.408Z,55.20
2019-04-26T13:46:19.167Z,55.00
2019-04-26T13:52:21.416Z,55.10
2019-04-26T13:58:25.595Z,54.80
2019-04-26T14:04:27.666Z,54.80
2019-04-26T14:10:29.911Z,54.30
2019-04-26T14:16:32.164Z,54.20
2019-04-26T14:22:42.463Z,53.60
2019-04-26T14:28:44.842Z,52.50
2019-04-26T14:34:47.194Z,50.30
2019-04-26T14:41:03.213Z,49.70
2019-04-26T14:46:56.774Z,50.60
2019-04-26T14:53:02.347Z,51.10
2019-04-26T14:59:08.306Z,51.70
2019-04-26T15:05:12.288Z,52.70
2019-04-26T15:11:14.639Z,54.00
2019-04-26T15:17:20.109Z,54.10
2019-04-26T15:23:23.832Z,53.90
2019-04-26T15:29:27.010Z,53.80
2019-04-26T15:35:32.628Z,55.30
2019-04-26T15:41:40.493Z,56.90
2019-04-26T15:47:47.460Z,58.00
2019-04-26T15:53:49.852Z,60.10
2019-04-26T15:59:54.407Z,63.30
2019-04-26T16:05:59.223Z,64.20
2019-04-26T16:12:00.847Z,64.50
2019-04-26T16:18:04.236Z,65.20
2019-04-26T16:24:06.526Z,66.80
2019-04-26T16:30:20.702Z,71.70
2019-04-26T16:36:24.002Z,74.80
2019-04-26T16:42:28.467Z,77.00
2019-04-26T16:48:30.767Z,77.40
2019-04-26T16:54:34.236Z,77.80
2019-04-26T17:00:50.256Z,77.20
2019-04-26T17:06:44.931Z,77.00
2019-04-26T17:12:46.291Z,77.40
2019-04-26T17:18:50.128Z,77.80
2019-04-26T17:24:56.942Z,78.60
2019-04-26T17:30:59.218Z,80.20
2019-04-26T17:37:02.520Z,81.30
2019-04-26T17:43:09.744Z,79.30
2019-04-26T17:49:11.480Z,78.80
2019-04-26T17:55:14.875Z,78.20
2019-04-26T18:01:41.201Z,77.80
2019-04-26T18:07:40.169Z,77.80
2019-04-26T18:13:25.974Z,78.20
2019-04-26T18:19:36.007Z,77.80
2019-04-26T18:25:41.284Z,78.50
2019-04-26T18:31:43.833Z,79.60
2019-04-26T18:37:46.404Z,78.80
2019-04-26T18:43:54.072Z,78.50
2019-04-26T18:49:58.150Z,78.20
2019-04-26T18:56:03.451Z,78.00
2019-04-26T19:02:04.755Z,77.50
2019-04-26T19:08:09.423Z,77.40
2019-04-26T19:14:25.496Z,77.30
2019-04-26T19:20:46.339Z,77.50
2019-04-26T19:26:49.936Z,77.70
2019-04-26T19:32:53.934Z,77.40
2019-04-26T19:38:56.243Z,77.50
2019-04-26T19:45:11.947Z,77.50
2019-04-26T19:51:04.408Z,77.80
2019-04-26T19:57:28.206Z,77.90
2019-04-26T20:03:32.069Z,78.10
2019-04-26T20:09:34.765Z,78.30
2019-04-26T20:15:37.011Z,78.70
2019-04-26T20:21:41.221Z,78.60
2019-04-26T20:27:43.563Z,78.30
2019-04-26T20:33:47.791Z,78.40
2019-04-26T20:39:55.892Z,78.40
2019-04-26T20:46:11.048Z,77.70
2019-04-26T20:51:58.528Z,78.00
2019-04-26T20:58:05.691Z,78.00
2019-04-26T21:04:06.144Z,78.20
2019-04-26T21:10:08.553Z,78.50
2019-04-26T21:16:15.034Z,79.10
2019-04-26T21:22:18.284Z,80.40
2019-04-26T21:28:33.079Z,81.00
2019-04-26T21:34:37.170Z,82.10
2019-04-26T21:40:44.331Z,83.40
2019-04-26T21:46:49.568Z,84.00
2019-04-26T21:52:50.530Z,84.20
2019-04-26T21:58:53.343Z,84.20
2019-04-26T22:04:55.739Z,84.50
2019-04-26T22:10:58.295Z,83.90
2019-04-26T22:17:05.261Z,82.60
2019-04-26T22:23:11.531Z,82.50
2019-04-26T22:29:16.846Z,83.00
2019-04-26T22:35:21.357Z,82.60
2019-04-26T22:41:24.450Z,82.10
2019-04-26T22:47:42.455Z,82.60
2019-04-26T22:53:43.381Z,82.10
2019-04-26T22:59:50.141Z,81.70
2019-04-26T23:05:49.876Z,81.70
2019-04-26T23:12:06.269Z,81.70
2019-04-26T23:18:25.363Z,81.40
2019-04-26T23:24:27.483Z,81.70
2019-04-26T23:30:31.729Z,81.90
2019-04-26T23:36:34.884Z,81.70
2019-04-26T23:42:37.235Z,81.50
2019-04-26T23:48:42.735Z,81.10
2019-04-26T23:54:43.407Z,81.20
